Time;durP1;ratioP1;P1;durP2;ratioP2;P2;SDS_P1;SDS_P2;PMS_P1;PMS_P2;Temp;Humidity;BMP_temperature;BMP_pressure;BME280_temperature;BME280_humidity;BME280_pressure;Samples;Min_cycle;Max_cycle;Signal;HPM_P1;HPM_P2
2021/10/26 00:00:10;;;;;;;39.57;22.80;;;13.30;84.80;;;;;;5055506;28;20633;-85
2021/10/26 00:02:37;;;;;;;42.92;23.65;;;13.20;84.70;;;;;;5038900;28;20178;-84
2021/10/26 00:05:04;;;;;;;34.30;21.73;;;13.20;84.80;;;;;;5039701;28;20712;-84
2021/10/26 00:07:30;;;;;;;52.67;25.05;;;13.20;84.80;;;;;;5024880;28;20201;-84
2021/10/26 00:09:56;;;;;;;38.08;24.63;;;13.00;85.00;;;;;;5022979;28;20185;-84
2021/10/26 00:12:22;;;;;;;41.17;22.50;;;12.90;85.30;;;;;;5031627;28;20645;-84
2021/10/26 00:14:48;;;;;;;48.63;25.93;;;12.80;85.60;;;;;;5059759;28;20481;-84
2021/10/26 00:17:15;;;;;;;49.13;24.83;;;12.70;86.10;;;;;;5059290;28;20216;-84
2021/10/26 00:19:40;;;;;;;48.17;23.40;;;12.70;86.30;;;;;;5058790;28;20945;-84
2021/10/26 00:22:06;;;;;;;57.20;26.47;;;12.80;86.10;;;;;;5025570;28;20189;-84
2021/10/26 00:24:32;;;;;;;43.87;24.50;;;12.70;86.20;;;;;;5041732;28;20439;-84
2021/10/26 00:26:58;;;;;;;52.53;25.63;;;12.80;86.20;;;;;;5025168;28;20704;-84
2021/10/26 00:29:23;;;;;;;50.03;24.33;;;12.60;86.30;;;;;;5043265;28;20427;-84
2021/10/26 00:31:49;;;;;;;48.90;25.90;;;12.60;86.50;;;;;;5059637;28;20214;-84
2021/10/26 00:34:16;;;;;;;52.70;25.17;;;12.50;86.60;;;;;;5056394;28;20212;-84
2021/10/26 00:36:42;;;;;;;52.78;26.52;;;12.50;86.70;;;;;;5053982;28;20821;-84
2021/10/26 00:39:08;;;;;;;50.95;25.85;;;12.40;86.80;;;;;;5021911;28;20598;-84
2021/10/26 00:41:34;;;;;;;46.50;24.38;;;12.40;87.00;;;;;;5039177;28;20185;-84
2021/10/26 00:44:00;;;;;;;45.67;24.65;;;12.40;87.20;;;;;;5021097;28;20568;-84
2021/10/26 00:46:34;;;;;;;55.27;28.03;;;12.40;87.30;;;;;;5022899;28;20174;-85
2021/10/26 00:49:01;;;;;;;56.13;26.70;;;12.40;87.20;;;;;;5023125;28;20628;-84
2021/10/26 00:51:29;;;;;;;45.47;25.90;;;12.40;87.10;;;;;;5024312;28;20204;-85
2021/10/26 00:53:57;;;;;;;45.67;26.60;;;12.50;87.20;;;;;;5063503;28;20205;-84
2021/10/26 00:56:23;;;;;;;46.55;26.45;;;12.50;87.10;;;;;;5047392;28;20338;-85
2021/10/26 00:58:49;;;;;;;59.33;25.90;;;12.50;86.90;;;;;;5058606;28;20237;-84
2021/10/26 01:01:16;;;;;;;50.77;26.70;;;12.30;87.00;;;;;;5041230;28;20609;-85
2021/10/26 01:03:46;;;;;;;49.40;26.42;;;12.20;87.10;;;;;;5042106;28;20468;-85
2021/10/26 01:06:15;;;;;;;50.15;24.98;;;12.30;87.50;;;;;;5063707;28;20204;-84
2021/10/26 01:08:43;;;;;;;55.22;27.55;;;12.20;87.40;;;;;;5063886;28;20194;-84
2021/10/26 01:11:10;;;;;;;50.20;23.95;;;12.20;87.40;;;;;;5051110;28;20245;-85
2021/10/26 01:13:36;;;;;;;60.22;26.73;;;12.20;87.40;;;;;;5052558;28;20193;-85
2021/10/26 01:16:03;;;;;;;56.58;27.40;;;12.20;87.40;;;;;;5050415;28;20208;-85
2021/10/26 01:18:28;;;;;;;49.53;24.77;;;12.20;87.40;;;;;;5060398;28;20180;-85
2021/10/26 01:20:56;;;;;;;60.00;25.17;;;12.20;87.50;;;;;;5041629;28;20205;-84
2021/10/26 01:23:22;;;;;;;56.90;26.50;;;12.10;87.50;;;;;;5043077;28;20446;-85
2021/10/26 01:25:48;;;;;;;56.75;29.05;;;12.10;87.60;;;;;;5033065;28;20200;-84
2021/10/26 01:28:14;;;;;;;51.78;25.13;;;12.00;87.50;;;;;;5024583;28;20208;-85
2021/10/26 01:30:41;;;;;;;49.20;23.17;;;12.10;87.60;;;;;;5041613;28;20202;-84
2021/10/26 01:33:07;;;;;;;57.67;28.02;;;12.10;87.60;;;;;;5023192;28;20193;-85
2021/10/26 01:35:34;;;;;;;59.05;26.38;;;12.00;87.50;;;;;;5024368;28;20212;-84
2021/10/26 01:38:01;;;;;;;64.97;26.60;;;12.00;87.70;;;;;;5023815;28;20228;-85
2021/10/26 01:40:27;;;;;;;58.78;25.70;;;11.90;87.70;;;;;;5024187;28;20190;-84
2021/10/26 01:42:53;;;;;;;58.40;25.13;;;12.00;87.80;;;;;;5041061;28;20691;-86
2021/10/26 01:45:19;;;;;;;50.15;25.70;;;12.00;87.80;;;;;;5023368;28;20202;-85
2021/10/26 01:47:45;;;;;;;64.82;26.35;;;12.10;87.60;;;;;;5022296;28;20189;-85
2021/10/26 01:50:15;;;;;;;62.47;28.00;;;12.10;87.60;;;;;;5020741;28;20177;-85
2021/10/26 01:52:42;;;;;;;61.80;26.50;;;11.90;87.60;;;;;;5037523;28;20182;-84
2021/10/26 01:55:08;;;;;;;50.28;25.10;;;11.90;87.70;;;;;;5019659;28;20205;-84
2021/10/26 01:57:35;;;;;;;60.47;26.88;;;12.00;87.70;;;;;;5042626;28;20178;-85
2021/10/26 02:00:04;;;;;;;48.42;26.67;;;12.00;87.50;;;;;;5038609;28;20181;-85
2021/10/26 02:02:30;;;;;;;61.45;27.42;;;11.90;87.70;;;;;;5056749;28;20201;-85
2021/10/26 02:04:56;;;;;;;57.10;27.33;;;11.80;87.70;;;;;;5038526;28;20219;-84
2021/10/26 02:07:22;;;;;;;60.37;27.97;;;11.90;87.90;;;;;;5028771;28;20205;-84
2021/10/26 02:09:47;;;;;;;54.07;27.43;;;11.90;88.00;;;;;;5017966;28;20425;-85
2021/10/26 02:12:13;;;;;;;50.33;27.03;;;11.90;87.90;;;;;;5035921;28;20598;-85
2021/10/26 02:14:39;;;;;;;58.27;28.30;;;11.80;87.90;;;;;;5026762;28;20231;-85
2021/10/26 02:17:05;;;;;;;59.97;27.83;;;11.80;87.90;;;;;;5038148;28;20498;-85
2021/10/26 02:19:31;;;;;;;58.63;28.40;;;11.80;88.00;;;;;;5056307;28;20207;-84
2021/10/26 02:21:57;;;;;;;52.28;28.60;;;11.80;88.00;;;;;;5038577;28;20204;-84
2021/10/26 02:24:23;;;;;;;55.30;27.43;;;11.90;88.10;;;;;;5037870;28;20193;-85
2021/10/26 02:26:49;;;;;;;58.95;27.58;;;11.80;87.90;;;;;;5037837;28;20419;-85
2021/10/26 02:29:15;;;;;;;66.00;27.80;;;11.70;87.90;;;;;;5018132;28;20186;-85
2021/10/26 02:31:41;;;;;;;75.57;29.47;;;11.70;88.00;;;;;;5017841;28;20272;-85
2021/10/26 02:34:07;;;;;;;56.40;26.57;;;11.60;88.10;;;;;;5017175;28;20437;-85
2021/10/26 02:36:34;;;;;;;59.10;28.43;;;11.60;88.30;;;;;;5018961;28;21078;-85
2021/10/26 02:39:01;;;;;;;59.13;26.05;;;11.70;88.30;;;;;;5019175;28;20205;-84
2021/10/26 02:41:26;;;;;;;60.28;26.50;;;11.70;88.20;;;;;;5019636;28;20204;-84
2021/10/26 02:43:52;;;;;;;60.57;26.97;;;11.80;87.90;;;;;;5045387;28;20205;-84
2021/10/26 02:46:18;;;;;;;69.83;26.10;;;11.70;88.00;;;;;;5019532;28;20210;-84
2021/10/26 02:48:43;;;;;;;60.90;26.60;;;11.80;87.90;;;;;;5036393;28;20181;-84
2021/10/26 02:51:10;;;;;;;49.90;25.80;;;11.80;87.80;;;;;;5036825;28;20415;-84
2021/10/26 02:53:36;;;;;;;56.45;25.98;;;11.80;87.80;;;;;;5018292;28;20684;-85
2021/10/26 02:56:02;;;;;;;55.45;27.95;;;11.70;88.50;;;;;;5036370;28;20225;-84
2021/10/26 02:58:28;;;;;;;49.20;24.20;;;11.60;87.70;;;;;;5037758;28;20182;-84
2021/10/26 03:00:54;;;;;;;65.50;27.83;;;11.70;87.70;;;;;;5051428;28;20185;-84
2021/10/26 03:03:20;;;;;;;57.30;27.43;;;11.60;87.70;;;;;;5039518;28;20459;-84
2021/10/26 03:05:46;;;;;;;55.80;27.13;;;11.60;87.80;;;;;;5056875;28;20193;-84
2021/10/26 03:08:11;;;;;;;66.20;24.63;;;11.50;88.00;;;;;;5039053;28;20188;-84
2021/10/26 03:10:38;;;;;;;53.00;24.60;;;11.50;88.10;;;;;;5052098;28;20944;-84
2021/10/26 03:13:04;;;;;;;46.80;23.98;;;11.60;88.10;;;;;;5055373;28;20609;-85
2021/10/26 03:15:30;;;;;;;55.38;27.20;;;11.50;88.10;;;;;;5034217;28;20233;-85
2021/10/26 03:17:57;;;;;;;63.25;27.58;;;11.60;88.00;;;;;;5029889;28;20250;-84
2021/10/26 03:20:22;;;;;;;51.05;24.65;;;11.50;87.90;;;;;;5037848;28;20658;-85
2021/10/26 03:22:48;;;;;;;55.53;25.43;;;11.50;88.00;;;;;;5022237;28;20174;-86
2021/10/26 03:25:14;;;;;;;52.97;25.20;;;11.50;88.10;;;;;;5021734;28;20205;-85
2021/10/26 03:27:40;;;;;;;61.53;24.98;;;11.50;88.00;;;;;;5023191;28;20285;-85
2021/10/26 03:30:10;;;;;;;56.33;24.67;;;11.50;88.10;;;;;;5041659;28;20695;-85
2021/10/26 03:32:37;;;;;;;55.65;26.00;;;11.70;87.90;;;;;;5028114;28;20572;-85
2021/10/26 03:35:04;;;;;;;60.05;24.70;;;11.70;87.40;;;;;;5035657;28;20208;-85
2021/10/26 03:37:30;;;;;;;57.05;23.40;;;11.60;87.00;;;;;;5045471;28;20178;-84
2021/10/26 03:39:56;;;;;;;61.15;27.80;;;11.60;87.20;;;;;;5026499;28;20217;-85
2021/10/26 03:42:26;;;;;;;48.33;23.90;;;11.60;87.10;;;;;;5030561;28;20180;-84
2021/10/26 03:44:52;;;;;;;43.30;22.75;;;11.50;87.30;;;;;;5028161;28;20202;-84
2021/10/26 03:47:19;;;;;;;54.28;23.30;;;11.50;87.50;;;;;;5027215;28;20268;-85
2021/10/26 03:49:45;;;;;;;44.38;23.05;;;11.60;87.30;;;;;;5039178;28;20177;-84
2021/10/26 03:52:11;;;;;;;52.45;25.85;;;11.50;87.20;;;;;;5038585;28;20267;-84
2021/10/26 03:54:38;;;;;;;43.93;23.83;;;11.50;87.30;;;;;;5020921;28;20205;-84
2021/10/26 03:57:08;;;;;;;55.92;24.75;;;11.40;87.30;;;;;;5021624;28;20204;-84
2021/10/26 03:59:35;;;;;;;52.70;25.33;;;11.30;87.40;;;;;;5039018;28;20162;-84
2021/10/26 04:02:07;;;;;;;55.58;25.45;;;11.50;87.60;;;;;;5020492;28;20181;-84
2021/10/26 04:04:33;;;;;;;53.65;22.48;;;11.50;87.50;;;;;;5019109;28;20194;-84
2021/10/26 04:07:00;;;;;;;57.93;24.47;;;11.60;87.20;;;;;;5019160;28;20209;-84
2021/10/26 04:09:33;;;;;;;55.58;23.55;;;11.50;87.30;;;;;;5054422;28;20834;-84
2021/10/26 04:14:57;;;;;;;49.28;25.55;;;11.60;87.20;;;;;;5043442;28;20210;-85
2021/10/26 04:17:26;;;;;;;44.28;22.98;;;11.50;87.00;;;;;;5055928;28;20209;-84
2021/10/26 04:19:57;;;;;;;51.00;23.60;;;11.60;87.00;;;;;;5055606;28;20181;-85
2021/10/26 04:22:24;;;;;;;45.25;21.52;;;11.60;86.80;;;;;;5056028;28;20172;-85
2021/10/26 04:24:50;;;;;;;61.40;23.30;;;11.50;86.90;;;;;;5056690;28;20238;-84
2021/10/26 04:27:18;;;;;;;46.22;22.10;;;11.40;86.80;;;;;;5054973;28;20188;-85
2021/10/26 04:29:45;;;;;;;51.00;22.23;;;11.40;87.00;;;;;;5055802;28;20323;-85
2021/10/26 04:32:12;;;;;;;56.20;24.13;;;11.30;87.10;;;;;;5056893;28;20185;-85
2021/10/26 04:34:38;;;;;;;54.88;22.85;;;11.30;87.30;;;;;;5056389;28;20247;-85
2021/10/26 04:37:06;;;;;;;49.65;23.23;;;11.30;87.20;;;;;;5055805;28;20239;-85
2021/10/26 04:39:33;;;;;;;50.97;23.27;;;11.40;87.20;;;;;;5057482;28;20181;-85
2021/10/26 04:42:00;;;;;;;47.63;22.58;;;11.50;87.20;;;;;;5056501;28;20204;-85
2021/10/26 04:44:26;;;;;;;49.20;21.33;;;11.50;87.00;;;;;;5056660;28;20189;-84
2021/10/26 04:46:52;;;;;;;45.55;20.73;;;11.30;87.00;;;;;;5058024;28;20190;-85
2021/10/26 04:49:18;;;;;;;47.97;24.10;;;11.30;87.30;;;;;;5057038;28;20231;-85
2021/10/26 04:51:44;;;;;;;44.67;23.23;;;11.50;87.20;;;;;;5057143;28;20273;-84
2021/10/26 04:54:09;;;;;;;50.50;22.20;;;11.50;86.90;;;;;;5057668;28;20193;-85
2021/10/26 04:56:35;;;;;;;48.60;21.43;;;11.50;86.80;;;;;;5058146;28;20211;-84
2021/10/26 04:59:01;;;;;;;47.53;20.80;;;11.40;86.80;;;;;;5057736;28;20181;-84
2021/10/26 05:01:27;;;;;;;44.00;22.47;;;11.40;86.90;;;;;;5057716;28;20173;-84
2021/10/26 05:03:52;;;;;;;45.17;20.97;;;11.40;86.90;;;;;;5040052;28;20272;-84
2021/10/26 05:06:18;;;;;;;53.83;21.97;;;11.50;87.00;;;;;;5056584;28;20443;-85
2021/10/26 05:08:45;;;;;;;44.33;21.67;;;11.50;86.80;;;;;;5056108;28;20185;-85
2021/10/26 05:11:11;;;;;;;44.85;21.60;;;11.50;86.70;;;;;;5057227;28;20191;-84
2021/10/26 05:13:37;;;;;;;47.37;21.40;;;11.50;86.60;;;;;;5058096;28;20200;-85
2021/10/26 05:16:03;;;;;;;49.77;23.03;;;11.50;86.60;;;;;;5058036;28;20201;-84
2021/10/26 05:18:31;;;;;;;40.85;19.35;;;11.60;86.40;;;;;;5057790;28;20211;-84
2021/10/26 05:20:59;;;;;;;47.10;19.48;;;11.50;86.30;;;;;;5041025;28;20194;-84
2021/10/26 05:23:25;;;;;;;46.28;21.15;;;11.40;86.40;;;;;;5054112;28;20327;-84
2021/10/26 05:25:52;;;;;;;45.07;21.37;;;11.40;86.60;;;;;;5053716;28;20232;-84
2021/10/26 05:28:18;;;;;;;47.55;22.52;;;11.40;86.60;;;;;;5044320;28;20264;-85
2021/10/26 05:30:43;;;;;;;43.80;20.20;;;11.30;86.50;;;;;;5037977;28;20577;-84
2021/10/26 05:33:09;;;;;;;56.17;27.47;;;11.40;86.60;;;;;;5059095;28;20427;-84
2021/10/26 05:35:35;;;;;;;50.67;28.70;;;11.50;86.60;;;;;;5058506;28;20461;-85
2021/10/26 05:38:01;;;;;;;60.40;28.73;;;11.50;86.40;;;;;;5053921;28;20421;-84
2021/10/26 05:40:27;;;;;;;49.13;26.37;;;11.40;86.30;;;;;;5051584;28;20173;-85
2021/10/26 05:42:52;;;;;;;45.80;25.83;;;11.50;86.40;;;;;;5037059;28;20421;-85
2021/10/26 05:45:18;;;;;;;46.63;25.40;;;11.40;86.20;;;;;;5034559;28;20197;-85
2021/10/26 05:47:45;;;;;;;49.83;23.77;;;11.30;86.40;;;;;;5034927;28;20177;-85
2021/10/26 05:50:11;;;;;;;50.30;22.50;;;11.30;86.50;;;;;;5035344;28;20428;-85
2021/10/26 05:52:38;;;;;;;48.05;22.65;;;11.30;86.60;;;;;;5036350;28;20634;-85
2021/10/26 05:55:04;;;;;;;46.15;23.88;;;11.20;86.70;;;;;;5050988;28;20309;-85
2021/10/26 05:57:32;;;;;;;46.90;21.93;;;11.20;87.00;;;;;;5050670;28;20308;-85
2021/10/26 05:59:58;;;;;;;48.80;21.45;;;11.10;87.10;;;;;;5057301;28;20455;-85
2021/10/26 06:02:24;;;;;;;53.25;22.40;;;11.20;87.00;;;;;;5054185;28;20197;-86
2021/10/26 06:04:51;;;;;;;47.50;20.83;;;11.10;87.20;;;;;;5053148;28;20571;-85
2021/10/26 06:07:17;;;;;;;45.83;21.20;;;11.00;87.20;;;;;;5055923;28;20177;-86
2021/10/26 06:09:43;;;;;;;49.80;22.30;;;10.90;87.60;;;;;;5057265;28;20669;-83
2021/10/26 06:12:15;;;;;;;38.53;20.20;;;11.00;87.70;;;;;;5050439;28;20431;-83
2021/10/26 06:14:44;;;;;;;51.00;22.85;;;11.10;87.80;;;;;;5033839;28;20459;-86
2021/10/26 06:17:09;;;;;;;51.92;22.38;;;11.10;87.70;;;;;;5018211;28;20609;-85
2021/10/26 06:19:35;;;;;;;45.90;20.10;;;11.20;87.50;;;;;;5055258;28;20207;-85
2021/10/26 06:22:01;;;;;;;43.87;20.47;;;11.20;87.50;;;;;;5035611;28;20469;-84
2021/10/26 06:24:27;;;;;;;47.30;23.00;;;11.30;87.50;;;;;;5033413;28;20450;-82
2021/10/26 06:26:52;;;;;;;53.00;23.50;;;11.30;87.20;;;;;;5055351;28;20173;-81
2021/10/26 06:29:19;;;;;;;46.30;21.30;;;11.30;87.10;;;;;;5026902;28;20514;-81
2021/10/26 06:31:45;;;;;;;45.50;20.73;;;11.30;87.10;;;;;;5022986;28;20178;-82
2021/10/26 06:34:11;;;;;;;46.78;22.13;;;11.30;87.20;;;;;;5021239;28;20198;-82
2021/10/26 06:36:37;;;;;;;44.60;22.10;;;11.30;87.20;;;;;;5043918;28;20225;-81
2021/10/26 06:39:03;;;;;;;54.08;23.23;;;11.30;87.20;;;;;;5029854;28;20400;-81
2021/10/26 06:41:29;;;;;;;44.03;22.63;;;11.40;87.10;;;;;;5035870;28;20193;-81
2021/10/26 06:43:54;;;;;;;37.80;21.70;;;11.30;86.90;;;;;;5037102;28;20487;-81
2021/10/26 06:46:20;;;;;;;48.70;24.43;;;11.30;87.10;;;;;;5035559;28;20178;-81
2021/10/26 06:48:47;;;;;;;46.23;23.40;;;11.30;87.20;;;;;;5024944;28;20186;-81
2021/10/26 06:51:12;;;;;;;50.53;24.05;;;11.20;87.10;;;;;;5023665;28;20303;-81
2021/10/26 06:53:40;;;;;;;51.73;24.00;;;11.10;88.10;;;;;;5045834;28;20201;-81
2021/10/26 06:56:12;;;;;;;50.92;23.98;;;11.20;87.50;;;;;;5039793;28;20464;-81
2021/10/26 06:58:38;;;;;;;54.75;25.67;;;11.40;87.40;;;;;;5057738;28;20647;-81
2021/10/26 07:01:07;;;;;;;52.30;24.83;;;11.50;87.20;;;;;;5055643;28;20200;-81
2021/10/26 07:03:37;;;;;;;59.33;25.02;;;11.50;87.20;;;;;;5039739;28;20189;-81
2021/10/26 07:06:05;;;;;;;61.50;25.20;;;11.70;87.10;;;;;;5058414;28;20217;-82
2021/10/26 07:08:31;;;;;;;44.90;24.35;;;11.70;86.60;;;;;;5057146;28;20173;-81
2021/10/26 07:10:59;;;;;;;49.20;26.33;;;11.90;86.40;;;;;;5036938;28;20640;-82
2021/10/26 07:13:25;;;;;;;57.25;26.25;;;11.90;85.90;;;;;;5019112;28;20676;-82
2021/10/26 07:15:52;;;;;;;54.53;23.88;;;12.00;85.90;;;;;;5017145;28;20224;-81
2021/10/26 07:18:18;;;;;;;60.10;27.30;;;12.10;85.70;;;;;;5022617;28;20177;-80
2021/10/26 07:20:44;;;;;;;44.45;24.05;;;12.20;85.50;;;;;;5044208;28;20308;-81
2021/10/26 07:23:10;;;;;;;64.53;24.77;;;12.30;85.40;;;;;;5054457;28;20174;-82
2021/10/26 07:25:36;;;;;;;54.28;25.63;;;12.30;85.10;;;;;;5053368;28;20182;-81
2021/10/26 07:28:02;;;;;;;58.90;23.80;;;12.40;84.80;;;;;;5048173;28;20185;-81
2021/10/26 07:30:32;;;;;;;47.17;22.97;;;12.50;85.10;;;;;;5022290;28;20447;-82
2021/10/26 07:33:02;;;;;;;42.72;23.75;;;12.70;84.80;;;;;;5016750;28;20783;-81
2021/10/26 07:35:41;;;;;;;44.28;23.65;;;12.70;84.30;;;;;;5016340;28;20178;-82
2021/10/26 07:38:08;;;;;;;45.55;22.58;;;12.70;84.00;;;;;;5030346;28;20687;-82
2021/10/26 07:40:34;;;;;;;38.78;21.40;;;12.70;84.50;;;;;;5024443;28;20177;-81
2021/10/26 07:42:59;;;;;;;36.80;22.27;;;12.70;84.90;;;;;;5040181;28;20249;-82
2021/10/26 07:45:25;;;;;;;46.50;20.93;;;12.70;85.10;;;;;;5058538;28;20178;-81
2021/10/26 07:47:51;;;;;;;34.47;20.10;;;12.70;85.00;;;;;;5058680;28;20172;-81
2021/10/26 07:50:16;;;;;;;34.50;20.00;;;12.80;84.90;;;;;;5058501;28;20173;-81
2021/10/26 07:53:04;;;;;;;39.13;18.70;;;13.10;84.50;;;;;;5017442;28;20464;-82
2021/10/26 07:55:30;;;;;;;36.28;19.73;;;13.10;84.20;;;;;;5024317;28;20232;-81
2021/10/26 07:57:57;;;;;;;40.53;19.47;;;13.20;83.50;;;;;;5024175;28;20261;-81
2021/10/26 08:00:24;;;;;;;43.45;19.33;;;13.10;83.60;;;;;;5005356;28;20281;-81
2021/10/26 08:02:50;;;;;;;35.85;18.15;;;13.10;83.60;;;;;;5008467;28;20184;-81
2021/10/26 08:05:19;;;;;;;28.98;18.60;;;13.00;83.50;;;;;;5030181;28;20228;-81
2021/10/26 08:07:45;;;;;;;32.33;18.42;;;13.10;83.70;;;;;;5046324;28;20192;-81
2021/10/26 08:10:11;;;;;;;31.85;18.55;;;13.20;83.50;;;;;;5030650;28;20220;-81
2021/10/26 08:12:37;;;;;;;32.57;18.40;;;13.30;83.10;;;;;;5029999;28;20181;-81
2021/10/26 08:15:03;;;;;;;35.50;17.50;;;13.10;83.20;;;;;;5029565;28;20578;-81
2021/10/26 08:17:29;;;;;;;36.90;17.10;;;13.00;83.50;;;;;;5021069;28;20291;-81
2021/10/26 08:19:55;;;;;;;33.30;19.20;;;13.00;83.80;;;;;;5038892;28;20645;-82
2021/10/26 08:22:23;;;;;;;25.92;17.48;;;13.20;83.70;;;;;;5040655;28;20189;-81
2021/10/26 08:24:53;;;;;;;32.95;18.27;;;13.30;83.70;;;;;;5050648;28;20668;-81
2021/10/26 08:27:20;;;;;;;29.77;17.52;;;13.40;83.70;;;;;;5055078;28;20696;-81
2021/10/26 08:32:32;;;;;;;28.10;17.05;;;13.60;82.60;;;;;;5063214;28;20192;-81
2021/10/26 08:37:29;;;;;;;34.13;16.50;;;13.80;81.80;;;;;;5042790;28;20680;-81
2021/10/26 08:39:55;;;;;;;30.33;16.30;;;13.90;81.50;;;;;;5041360;28;20231;-81
2021/10/26 08:42:21;;;;;;;25.77;16.47;;;13.60;81.40;;;;;;5053404;28;20804;-81
2021/10/26 08:44:49;;;;;;;24.45;15.27;;;13.70;81.70;;;;;;5053086;28;20193;-81
2021/10/26 08:47:16;;;;;;;25.20;16.00;;;13.80;81.80;;;;;;5042464;28;20189;-81
2021/10/26 08:49:47;;;;;;;30.65;16.35;;;14.00;81.80;;;;;;5057337;28;20304;-81
2021/10/26 08:52:14;;;;;;;31.38;14.38;;;14.10;81.10;;;;;;5057468;28;20190;-81
2021/10/26 08:54:39;;;;;;;23.58;15.73;;;13.70;80.80;;;;;;5042136;28;20615;-81
2021/10/26 08:57:05;;;;;;;29.10;16.20;;;13.80;81.00;;;;;;5074004;28;20305;-81
2021/10/26 08:59:31;;;;;;;22.07;14.67;;;13.90;81.10;;;;;;5048587;28;20304;-81
2021/10/26 09:02:00;;;;;;;24.53;15.33;;;14.00;81.10;;;;;;5058739;28;20958;-81
2021/10/26 09:04:31;;;;;;;21.90;13.88;;;14.00;81.10;;;;;;5042975;28;20424;-80
2021/10/26 09:07:04;;;;;;;27.58;16.13;;;14.20;81.10;;;;;;5057081;28;20220;-81
2021/10/26 09:09:34;;;;;;;23.25;15.02;;;14.30;80.90;;;;;;5058925;28;20268;-81
2021/10/26 09:17:53;;;;;;;28.35;13.30;;;14.90;78.90;;;;;;5046094;28;20204;-81
2021/10/26 09:20:22;;;;;;;22.15;13.32;;;14.90;78.50;;;;;;5054394;28;20181;-82
2021/10/26 09:22:55;;;;;;;21.63;12.93;;;14.90;78.20;;;;;;5041638;28;20672;-81
2021/10/26 09:25:31;;;;;;;21.85;12.75;;;14.90;77.20;;;;;;5050227;28;20192;-81
2021/10/26 09:28:07;;;;;;;18.52;13.15;;;14.90;77.50;;;;;;5073377;28;20173;-81
2021/10/26 09:30:33;;;;;;;17.48;11.95;;;14.70;77.60;;;;;;5057847;28;20181;-81
2021/10/26 09:32:59;;;;;;;20.77;12.83;;;14.70;77.90;;;;;;5058148;28;20227;-82
2021/10/26 09:35:26;;;;;;;21.10;11.77;;;14.80;77.80;;;;;;5059665;28;20264;-81
2021/10/26 09:37:56;;;;;;;27.77;11.70;;;14.70;77.60;;;;;;5057561;28;20419;-81
2021/10/26 09:40:39;;;;;;;18.05;12.73;;;14.80;77.90;;;;;;5058056;28;20235;-81
2021/10/26 09:43:06;;;;;;;21.75;11.50;;;14.90;77.60;;;;;;5059242;28;20676;-82
2021/10/26 09:45:33;;;;;;;17.25;10.35;;;14.70;77.40;;;;;;5043819;28;20212;-81
2021/10/26 09:48:20;;;;;;;15.25;11.02;;;15.00;77.70;;;;;;5056545;28;20633;-81
2021/10/26 09:50:46;;;;;;;17.63;10.18;;;15.10;77.70;;;;;;5038988;28;20166;-81
2021/10/26 09:53:14;;;;;;;20.95;11.55;;;15.30;77.50;;;;;;5038750;28;20629;-82
2021/10/26 09:55:42;;;;;;;20.33;10.05;;;15.50;76.20;;;;;;5051073;28;20213;-81
2021/10/26 09:58:15;;;;;;;16.10;11.15;;;15.40;75.30;;;;;;5053294;28;20178;-81
2021/10/26 10:00:45;;;;;;;16.13;9.90;;;15.50;75.60;;;;;;5056137;28;20181;-81
2021/10/26 10:03:14;;;;;;;16.27;9.25;;;15.40;75.50;;;;;;5046628;28;20177;-80
2021/10/26 10:05:59;;;;;;;16.63;9.18;;;15.20;74.70;;;;;;5058641;28;20197;-81
2021/10/26 10:08:36;;;;;;;12.77;9.70;;;15.40;75.20;;;;;;5060289;28;20173;-80
2021/10/26 10:11:14;;;;;;;20.08;11.07;;;15.50;75.10;;;;;;5057917;28;20180;-81
2021/10/26 10:13:42;;;;;;;18.88;9.30;;;15.10;75.10;;;;;;5053075;28;20205;-81
2021/10/26 10:16:13;;;;;;;17.98;8.63;;;15.20;75.50;;;;;;5039035;28;20198;-81
2021/10/26 10:18:42;;;;;;;14.45;8.35;;;15.40;75.60;;;;;;5055761;28;20181;-82
2021/10/26 10:21:10;;;;;;;16.98;9.55;;;15.60;74.80;;;;;;5037787;28;20220;-81
2021/10/26 10:23:40;;;;;;;11.45;7.95;;;15.30;74.20;;;;;;5056625;28;20219;-81
2021/10/26 10:26:06;;;;;;;12.40;7.53;;;15.40;74.40;;;;;;5059341;28;20260;-81
2021/10/26 10:28:33;;;;;;;11.10;7.90;;;15.60;74.70;;;;;;5058286;28;20204;-81
2021/10/26 10:31:02;;;;;;;8.35;6.07;;;15.80;73.80;;;;;;5056454;28;20652;-81
2021/10/26 10:33:29;;;;;;;13.85;7.45;;;15.80;72.90;;;;;;5054827;28;20641;-81
2021/10/26 10:35:58;;;;;;;16.77;7.07;;;16.00;72.90;;;;;;5041709;28;20202;-81
2021/10/26 10:38:33;;;;;;;12.13;6.50;;;16.20;72.70;;;;;;5035012;28;20190;-81
2021/10/26 10:41:28;;;;;;;10.38;6.65;;;16.20;71.70;;;;;;5037713;28;20239;-81
2021/10/26 10:43:59;;;;;;;11.13;7.35;;;16.40;71.40;;;;;;5034961;28;20190;-82
2021/10/26 10:46:37;;;;;;;12.75;6.90;;;16.50;71.00;;;;;;5039876;28;20272;-81
2021/10/26 10:49:24;;;;;;;16.50;7.75;;;16.50;70.40;;;;;;5038600;28;20227;-81
2021/10/26 10:51:56;;;;;;;9.55;7.35;;;16.40;70.30;;;;;;5038392;28;20182;-81
2021/10/26 10:54:38;;;;;;;9.43;8.05;;;16.40;70.00;;;;;;5044440;28;20206;-81
2021/10/26 10:57:22;;;;;;;11.30;6.85;;;16.40;70.20;;;;;;5048041;28;20195;-81
2021/10/26 10:59:49;;;;;;;15.43;7.35;;;16.30;70.20;;;;;;5064265;28;20184;-81
2021/10/26 11:02:26;;;;;;;10.52;6.75;;;16.30;70.80;;;;;;5048741;28;20181;-81
2021/10/26 11:04:56;;;;;;;13.50;6.93;;;16.30;70.70;;;;;;5048915;28;20215;-81
2021/10/26 11:07:43;;;;;;;19.08;8.43;;;16.30;70.70;;;;;;5047766;28;20637;-81
2021/10/26 11:10:14;;;;;;;11.80;7.53;;;16.10;70.90;;;;;;5047829;28;20174;-81
2021/10/26 11:12:43;;;;;;;14.18;7.32;;;15.80;71.40;;;;;;5052839;28;20272;-81
2021/10/26 11:15:19;;;;;;;11.50;6.68;;;16.00;72.50;;;;;;5047345;28;20284;-80
2021/10/26 11:17:45;;;;;;;9.30;6.60;;;16.00;72.00;;;;;;5046870;28;20556;-80
2021/10/26 11:20:26;;;;;;;16.65;8.05;;;16.00;71.90;;;;;;5056327;28;20173;-80
2021/10/26 11:22:52;;;;;;;11.70;7.13;;;15.90;72.10;;;;;;5041138;28;20181;-80
2021/10/26 11:25:23;;;;;;;13.93;7.07;;;15.70;72.50;;;;;;5041387;28;20284;-80
2021/10/26 11:27:50;;;;;;;11.35;7.70;;;15.50;73.30;;;;;;5041156;28;20185;-80
2021/10/26 11:30:28;;;;;;;13.63;7.50;;;15.70;73.60;;;;;;5041158;28;20260;-80
2021/10/26 11:33:12;;;;;;;11.63;5.95;;;15.80;73.20;;;;;;5059523;28;20539;-80
2021/10/26 11:35:52;;;;;;;10.77;7.30;;;15.70;73.10;;;;;;5041439;28;20173;-80
2021/10/26 11:38:50;;;;;;;16.70;7.18;;;15.80;73.40;;;;;;5047129;28;20177;-80
2021/10/26 11:41:21;;;;;;;15.52;6.93;;;15.90;72.90;;;;;;5041199;28;20189;-80
2021/10/26 11:43:52;;;;;;;10.98;6.10;;;15.80;72.70;;;;;;5026559;28;20205;-80
2021/10/26 11:46:20;;;;;;;8.63;5.75;;;15.90;72.80;;;;;;5043029;28;20181;-80
2021/10/26 11:48:51;;;;;;;12.95;6.90;;;16.00;72.40;;;;;;5043096;28;20212;-80
2021/10/26 11:51:24;;;;;;;13.75;6.28;;;16.00;71.80;;;;;;5044680;28;20193;-80
2021/10/26 11:53:58;;;;;;;13.00;6.25;;;16.00;71.50;;;;;;5025950;28;20265;-80
2021/10/26 11:56:39;;;;;;;14.75;6.57;;;16.00;71.40;;;;;;5037624;28;20205;-81
2021/10/26 11:59:09;;;;;;;13.10;6.38;;;16.00;71.10;;;;;;5056039;28;20154;-80
2021/10/26 12:01:36;;;;;;;13.63;6.43;;;15.90;70.90;;;;;;5045852;28;20189;-80
2021/10/26 12:04:12;;;;;;;14.05;6.75;;;16.20;71.00;;;;;;5059181;28;20190;-80
2021/10/26 12:06:37;;;;;;;14.13;6.65;;;16.40;70.70;;;;;;5058876;28;20189;-80
2021/10/26 12:09:10;;;;;;;15.47;6.60;;;16.60;70.00;;;;;;5058993;28;20196;-80
2021/10/26 12:11:38;;;;;;;12.93;6.05;;;16.60;69.20;;;;;;5057624;28;20180;-80
2021/10/26 12:14:19;;;;;;;19.30;6.60;;;16.60;69.20;;;;;;5059380;28;20205;-80
2021/10/26 12:17:04;;;;;;;99.63;12.57;;;16.50;69.10;;;;;;5054869;28;20611;-80
2021/10/26 12:19:31;;;;;;;9.73;5.88;;;16.50;69.00;;;;;;5051046;28;20255;-80
2021/10/26 12:21:58;;;;;;;10.25;5.50;;;16.70;68.60;;;;;;5052968;28;20170;-80
2021/10/26 12:24:26;;;;;;;9.05;6.05;;;16.60;68.60;;;;;;5038486;28;20284;-80
2021/10/26 12:27:04;;;;;;;17.67;6.95;;;16.70;68.60;;;;;;5040101;28;20246;-80
2021/10/26 12:29:31;;;;;;;14.57;6.22;;;16.60;68.40;;;;;;5060029;28;20169;-79
2021/10/26 12:31:59;;;;;;;10.70;6.70;;;16.70;68.40;;;;;;5065813;28;20240;-80
2021/10/26 12:34:25;;;;;;;13.43;5.57;;;16.80;68.30;;;;;;5065259;28;20253;-80
2021/10/26 12:36:52;;;;;;;13.27;5.80;;;16.80;67.60;;;;;;5064281;28;20202;-81
2021/10/26 12:39:25;;;;;;;18.75;7.07;;;16.90;67.00;;;;;;5045049;28;20170;-80
2021/10/26 12:41:50;;;;;;;10.90;5.75;;;17.20;67.00;;;;;;5061298;28;20192;-80
2021/10/26 12:44:20;;;;;;;11.40;5.63;;;17.00;66.70;;;;;;5060397;28;20229;-80
2021/10/26 12:47:01;;;;;;;12.23;6.57;;;17.00;66.70;;;;;;5044069;28;20419;-80